sensor_id;sensor_type;location;lat;lon;timestamp;P1;durP1;ratioP1;P2;durP2;ratioP2
25639;SDS011;13497;48.322;16.204;2023-06-19T00:04:23;2.50;;;1.90;;
25639;SDS011;13497;48.322;16.204;2023-06-19T00:06:49;3.42;;;2.42;;
25639;SDS011;13497;48.322;16.204;2023-06-19T00:09:14;2.47;;;2.10;;
25639;SDS011;13497;48.322;16.204;2023-06-19T00:11:40;4.00;;;2.33;;
25639;SDS011;13497;48.322;16.204;2023-06-19T00:14:06;2.53;;;1.77;;
25639;SDS011;13497;48.322;16.204;2023-06-19T00:16:32;3.57;;;2.00;;
25639;SDS011;13497;48.322;16.204;2023-06-19T00:18:57;3.63;;;2.08;;
25639;SDS011;13497;48.322;16.204;2023-06-19T00:21:23;3.75;;;2.42;;
25639;SDS011;13497;48.322;16.204;2023-06-19T00:23:50;2.72;;;2.03;;
25639;SDS011;13497;48.322;16.204;2023-06-19T00:28:42;4.07;;;2.20;;
25639;SDS011;13497;48.322;16.204;2023-06-19T00:31:10;2.85;;;2.15;;
25639;SDS011;13497;48.322;16.204;2023-06-19T00:33:38;2.95;;;2.10;;
25639;SDS011;13497;48.322;16.204;2023-06-19T00:36:11;3.67;;;2.42;;
25639;SDS011;13497;48.322;16.204;2023-06-19T00:38:38;1.88;;;1.65;;
25639;SDS011;13497;48.322;16.204;2023-06-19T00:41:04;2.88;;;2.10;;
25639;SDS011;13497;48.322;16.204;2023-06-19T00:43:30;2.65;;;1.98;;
25639;SDS011;13497;48.322;16.204;2023-06-19T00:45:56;5.63;;;1.98;;
25639;SDS011;13497;48.322;16.204;2023-06-19T00:48:23;3.97;;;2.90;;
25639;SDS011;13497;48.322;16.204;2023-06-19T00:50:49;4.22;;;2.50;;
25639;SDS011;13497;48.322;16.204;2023-06-19T00:55:42;2.58;;;1.88;;
25639;SDS011;13497;48.322;16.204;2023-06-19T00:58:09;3.17;;;2.58;;
25639;SDS011;13497;48.322;16.204;2023-06-19T01:00:35;2.80;;;2.15;;
25639;SDS011;13497;48.322;16.204;2023-06-19T01:03:01;3.00;;;2.17;;
25639;SDS011;13497;48.322;16.204;2023-06-19T01:05:27;3.10;;;2.20;;
25639;SDS011;13497;48.322;16.204;2023-06-19T01:11:10;2.70;;;1.80;;
25639;SDS011;13497;48.322;16.204;2023-06-19T01:14:00;4.72;;;2.17;;
25639;SDS011;13497;48.322;16.204;2023-06-19T01:16:25;7.93;;;3.22;;
25639;SDS011;13497;48.322;16.204;2023-06-19T01:18:53;4.60;;;2.50;;
25639;SDS011;13497;48.322;16.204;2023-06-19T01:21:19;2.67;;;2.03;;
25639;SDS011;13497;48.322;16.204;2023-06-19T01:23:45;3.88;;;2.10;;
25639;SDS011;13497;48.322;16.204;2023-06-19T01:28:38;2.38;;;1.73;;
25639;SDS011;13497;48.322;16.204;2023-06-19T01:31:06;3.08;;;1.90;;
25639;SDS011;13497;48.322;16.204;2023-06-19T01:33:40;2.97;;;2.03;;
25639;SDS011;13497;48.322;16.204;2023-06-19T01:36:07;2.35;;;2.00;;
25639;SDS011;13497;48.322;16.204;2023-06-19T01:38:34;2.97;;;2.08;;
25639;SDS011;13497;48.322;16.204;2023-06-19T01:41:01;3.30;;;2.40;;
25639;SDS011;13497;48.322;16.204;2023-06-19T01:43:28;3.60;;;2.42;;
25639;SDS011;13497;48.322;16.204;2023-06-19T01:45:56;2.60;;;2.17;;
25639;SDS011;13497;48.322;16.204;2023-06-19T01:48:22;3.25;;;2.40;;
25639;SDS011;13497;48.322;16.204;2023-06-19T01:50:49;2.90;;;1.92;;
25639;SDS011;13497;48.322;16.204;2023-06-19T01:53:15;2.60;;;1.73;;
25639;SDS011;13497;48.322;16.204;2023-06-19T01:55:41;2.28;;;1.85;;
25639;SDS011;13497;48.322;16.204;2023-06-19T01:58:07;2.67;;;2.08;;
25639;SDS011;13497;48.322;16.204;2023-06-19T02:00:33;4.03;;;2.20;;
25639;SDS011;13497;48.322;16.204;2023-06-19T02:03:02;2.92;;;2.03;;
25639;SDS011;13497;48.322;16.204;2023-06-19T02:05:29;2.10;;;1.63;;
25639;SDS011;13497;48.322;16.204;2023-06-19T02:07:55;2.70;;;2.00;;
25639;SDS011;13497;48.322;16.204;2023-06-19T02:10:21;5.25;;;2.22;;
25639;SDS011;13497;48.322;16.204;2023-06-19T02:12:47;2.53;;;1.77;;
25639;SDS011;13497;48.322;16.204;2023-06-19T02:15:12;2.47;;;1.87;;
25639;SDS011;13497;48.322;16.204;2023-06-19T02:17:38;2.80;;;2.20;;
25639;SDS011;13497;48.322;16.204;2023-06-19T02:20:04;2.80;;;1.93;;
25639;SDS011;13497;48.322;16.204;2023-06-19T02:22:34;2.28;;;2.08;;
25639;SDS011;13497;48.322;16.204;2023-06-19T02:24:59;3.27;;;2.00;;
25639;SDS011;13497;48.322;16.204;2023-06-19T02:27:25;2.77;;;1.77;;
25639;SDS011;13497;48.322;16.204;2023-06-19T02:29:50;2.77;;;2.17;;
25639;SDS011;13497;48.322;16.204;2023-06-19T02:32:16;5.40;;;2.20;;
25639;SDS011;13497;48.322;16.204;2023-06-19T02:34:42;2.37;;;2.17;;
25639;SDS011;13497;48.322;16.204;2023-06-19T02:37:07;3.70;;;2.23;;
25639;SDS011;13497;48.322;16.204;2023-06-19T02:39:33;2.93;;;2.00;;
25639;SDS011;13497;48.322;16.204;2023-06-19T02:41:59;2.83;;;2.13;;
25639;SDS011;13497;48.322;16.204;2023-06-19T02:44:25;2.00;;;1.80;;
25639;SDS011;13497;48.322;16.204;2023-06-19T02:46:50;3.88;;;2.33;;
25639;SDS011;13497;48.322;16.204;2023-06-19T02:49:16;2.47;;;2.00;;
25639;SDS011;13497;48.322;16.204;2023-06-19T02:51:42;3.70;;;2.37;;
25639;SDS011;13497;48.322;16.204;2023-06-19T02:54:07;2.27;;;2.07;;
25639;SDS011;13497;48.322;16.204;2023-06-19T02:56:33;2.70;;;1.80;;
25639;SDS011;13497;48.322;16.204;2023-06-19T02:58:59;2.60;;;1.90;;
25639;SDS011;13497;48.322;16.204;2023-06-19T03:01:24;2.77;;;1.90;;
25639;SDS011;13497;48.322;16.204;2023-06-19T03:03:50;4.00;;;2.33;;
25639;SDS011;13497;48.322;16.204;2023-06-19T03:06:17;2.83;;;1.98;;
25639;SDS011;13497;48.322;16.204;2023-06-19T03:08:43;2.88;;;2.05;;
25639;SDS011;13497;48.322;16.204;2023-06-19T03:11:09;2.92;;;1.80;;
25639;SDS011;13497;48.322;16.204;2023-06-19T03:13:50;6.38;;;2.35;;
25639;SDS011;13497;48.322;16.204;2023-06-19T03:16:17;4.40;;;1.95;;
25639;SDS011;13497;48.322;16.204;2023-06-19T03:18:43;5.43;;;2.58;;
25639;SDS011;13497;48.322;16.204;2023-06-19T03:23:36;2.30;;;1.98;;
25639;SDS011;13497;48.322;16.204;2023-06-19T03:26:02;2.72;;;2.08;;
25639;SDS011;13497;48.322;16.204;2023-06-19T03:28:27;2.75;;;1.92;;
25639;SDS011;13497;48.322;16.204;2023-06-19T03:30:53;5.00;;;2.47;;
25639;SDS011;13497;48.322;16.204;2023-06-19T03:33:19;2.60;;;1.88;;
25639;SDS011;13497;48.322;16.204;2023-06-19T03:35:45;2.73;;;2.00;;
25639;SDS011;13497;48.322;16.204;2023-06-19T03:38:11;2.60;;;2.17;;
25639;SDS011;13497;48.322;16.204;2023-06-19T03:40:36;2.17;;;1.87;;
25639;SDS011;13497;48.322;16.204;2023-06-19T03:43:02;2.65;;;1.88;;
25639;SDS011;13497;48.322;16.204;2023-06-19T03:45:28;2.63;;;1.97;;
25639;SDS011;13497;48.322;16.204;2023-06-19T03:47:53;4.07;;;2.40;;
25639;SDS011;13497;48.322;16.204;2023-06-19T03:50:19;3.13;;;2.13;;
25639;SDS011;13497;48.322;16.204;2023-06-19T03:52:44;2.63;;;2.20;;
25639;SDS011;13497;48.322;16.204;2023-06-19T03:55:10;2.97;;;2.37;;
25639;SDS011;13497;48.322;16.204;2023-06-19T03:57:36;3.93;;;2.23;;
25639;SDS011;13497;48.322;16.204;2023-06-19T04:00:01;3.37;;;2.50;;
25639;SDS011;13497;48.322;16.204;2023-06-19T04:02:32;3.22;;;2.00;;
25639;SDS011;13497;48.322;16.204;2023-06-19T04:04:58;2.10;;;1.80;;
25639;SDS011;13497;48.322;16.204;2023-06-19T04:07:24;2.78;;;2.17;;
25639;SDS011;13497;48.322;16.204;2023-06-19T04:09:49;3.47;;;1.95;;
25639;SDS011;13497;48.322;16.204;2023-06-19T04:12:15;5.13;;;2.75;;
25639;SDS011;13497;48.322;16.204;2023-06-19T04:14:40;3.72;;;2.00;;
25639;SDS011;13497;48.322;16.204;2023-06-19T04:17:06;3.90;;;2.25;;
25639;SDS011;13497;48.322;16.204;2023-06-19T04:19:32;2.38;;;2.00;;
25639;SDS011;13497;48.322;16.204;2023-06-19T04:21:57;2.22;;;1.90;;
25639;SDS011;13497;48.322;16.204;2023-06-19T04:24:23;3.38;;;2.35;;
25639;SDS011;13497;48.322;16.204;2023-06-19T04:26:49;4.72;;;3.05;;
25639;SDS011;13497;48.322;16.204;2023-06-19T04:29:14;4.90;;;2.80;;
25639;SDS011;13497;48.322;16.204;2023-06-19T04:31:44;5.13;;;2.40;;
25639;SDS011;13497;48.322;16.204;2023-06-19T04:34:16;3.17;;;2.28;;
25639;SDS011;13497;48.322;16.204;2023-06-19T04:36:46;4.30;;;2.58;;
25639;SDS011;13497;48.322;16.204;2023-06-19T04:39:12;5.60;;;3.13;;
25639;SDS011;13497;48.322;16.204;2023-06-19T04:41:40;2.50;;;2.20;;
25639;SDS011;13497;48.322;16.204;2023-06-19T04:44:06;5.20;;;3.15;;
25639;SDS011;13497;48.322;16.204;2023-06-19T04:46:32;5.75;;;3.05;;
25639;SDS011;13497;48.322;16.204;2023-06-19T04:48:58;3.15;;;2.85;;
25639;SDS011;13497;48.322;16.204;2023-06-19T04:51:24;4.30;;;3.08;;
25639;SDS011;13497;48.322;16.204;2023-06-19T04:53:51;4.82;;;4.03;;
25639;SDS011;13497;48.322;16.204;2023-06-19T04:56:17;4.30;;;2.80;;
25639;SDS011;13497;48.322;16.204;2023-06-19T04:58:43;11.55;;;4.00;;
25639;SDS011;13497;48.322;16.204;2023-06-19T05:01:15;3.00;;;2.72;;
25639;SDS011;13497;48.322;16.204;2023-06-19T05:03:42;6.03;;;3.80;;
25639;SDS011;13497;48.322;16.204;2023-06-19T05:06:09;3.83;;;3.30;;
25639;SDS011;13497;48.322;16.204;2023-06-19T05:08:35;3.65;;;3.05;;
25639;SDS011;13497;48.322;16.204;2023-06-19T05:13:26;3.83;;;3.28;;
25639;SDS011;13497;48.322;16.204;2023-06-19T05:18:17;7.20;;;3.65;;
25639;SDS011;13497;48.322;16.204;2023-06-19T05:20:43;4.13;;;3.53;;
25639;SDS011;13497;48.322;16.204;2023-06-19T05:23:09;5.53;;;3.30;;
25639;SDS011;13497;48.322;16.204;2023-06-19T05:28:01;4.88;;;3.40;;
25639;SDS011;13497;48.322;16.204;2023-06-19T05:32:52;4.53;;;3.55;;
25639;SDS011;13497;48.322;16.204;2023-06-19T05:37:44;4.32;;;3.70;;
25639;SDS011;13497;48.322;16.204;2023-06-19T05:40:10;8.85;;;4.55;;
25639;SDS011;13497;48.322;16.204;2023-06-19T05:42:36;4.60;;;3.47;;
25639;SDS011;13497;48.322;16.204;2023-06-19T05:47:28;5.70;;;3.35;;
25639;SDS011;13497;48.322;16.204;2023-06-19T05:49:55;4.47;;;3.60;;
25639;SDS011;13497;48.322;16.204;2023-06-19T05:52:21;3.40;;;3.10;;
25639;SDS011;13497;48.322;16.204;2023-06-19T05:57:13;4.68;;;3.55;;
25639;SDS011;13497;48.322;16.204;2023-06-19T05:59:41;3.28;;;2.97;;
25639;SDS011;13497;48.322;16.204;2023-06-19T06:02:07;3.63;;;3.33;;
25639;SDS011;13497;48.322;16.204;2023-06-19T06:04:33;7.00;;;3.50;;
25639;SDS011;13497;48.322;16.204;2023-06-19T06:07:02;3.75;;;3.22;;
25639;SDS011;13497;48.322;16.204;2023-06-19T06:09:28;3.90;;;3.50;;
25639;SDS011;13497;48.322;16.204;2023-06-19T06:11:53;3.72;;;3.35;;
25639;SDS011;13497;48.322;16.204;2023-06-19T06:14:19;4.55;;;3.58;;
25639;SDS011;13497;48.322;16.204;2023-06-19T06:16:44;3.88;;;3.00;;
25639;SDS011;13497;48.322;16.204;2023-06-19T06:19:10;4.82;;;3.20;;
25639;SDS011;13497;48.322;16.204;2023-06-19T06:21:36;3.65;;;3.33;;
25639;SDS011;13497;48.322;16.204;2023-06-19T06:24:02;6.88;;;3.45;;
25639;SDS011;13497;48.322;16.204;2023-06-19T06:26:27;4.88;;;3.67;;
25639;SDS011;13497;48.322;16.204;2023-06-19T06:28:54;4.63;;;3.50;;
25639;SDS011;13497;48.322;16.204;2023-06-19T06:31:21;5.10;;;3.55;;
25639;SDS011;13497;48.322;16.204;2023-06-19T06:33:47;7.03;;;3.45;;
25639;SDS011;13497;48.322;16.204;2023-06-19T06:36:14;5.63;;;3.20;;
25639;SDS011;13497;48.322;16.204;2023-06-19T06:38:40;6.60;;;4.10;;
25639;SDS011;13497;48.322;16.204;2023-06-19T06:41:06;6.38;;;3.72;;
25639;SDS011;13497;48.322;16.204;2023-06-19T06:43:32;3.75;;;3.25;;
25639;SDS011;13497;48.322;16.204;2023-06-19T06:45:57;4.43;;;3.75;;
25639;SDS011;13497;48.322;16.204;2023-06-19T06:48:23;4.75;;;3.58;;
25639;SDS011;13497;48.322;16.204;2023-06-19T06:53:15;3.53;;;2.97;;
25639;SDS011;13497;48.322;16.204;2023-06-19T06:58:06;3.20;;;2.78;;
25639;SDS011;13497;48.322;16.204;2023-06-19T07:00:31;4.55;;;3.80;;
25639;SDS011;13497;48.322;16.204;2023-06-19T07:02:57;5.32;;;3.13;;
25639;SDS011;13497;48.322;16.204;2023-06-19T07:07:48;4.05;;;3.28;;
25639;SDS011;13497;48.322;16.204;2023-06-19T07:10:14;8.98;;;3.58;;
25639;SDS011;13497;48.322;16.204;2023-06-19T07:12:46;4.85;;;3.67;;
25639;SDS011;13497;48.322;16.204;2023-06-19T07:15:13;6.53;;;3.70;;
25639;SDS011;13497;48.322;16.204;2023-06-19T07:17:39;4.20;;;3.42;;
25639;SDS011;13497;48.322;16.204;2023-06-19T07:20:04;4.20;;;2.92;;
25639;SDS011;13497;48.322;16.204;2023-06-19T07:22:31;4.10;;;3.22;;
25639;SDS011;13497;48.322;16.204;2023-06-19T07:24:57;3.35;;;2.92;;
25639;SDS011;13497;48.322;16.204;2023-06-19T07:27:23;5.40;;;3.42;;
25639;SDS011;13497;48.322;16.204;2023-06-19T07:29:52;4.28;;;3.20;;
25639;SDS011;13497;48.322;16.204;2023-06-19T07:32:18;4.05;;;3.10;;
25639;SDS011;13497;48.322;16.204;2023-06-19T07:34:45;4.15;;;3.35;;
25639;SDS011;13497;48.322;16.204;2023-06-19T07:39:42;4.78;;;3.10;;
25639;SDS011;13497;48.322;16.204;2023-06-19T07:42:09;4.38;;;3.20;;
25639;SDS011;13497;48.322;16.204;2023-06-19T07:44:35;3.70;;;2.97;;
25639;SDS011;13497;48.322;16.204;2023-06-19T07:47:01;4.10;;;3.30;;
25639;SDS011;13497;48.322;16.204;2023-06-19T07:49:27;3.50;;;2.85;;
25639;SDS011;13497;48.322;16.204;2023-06-19T07:51:52;3.83;;;3.10;;
25639;SDS011;13497;48.322;16.204;2023-06-19T07:54:18;3.75;;;3.05;;
25639;SDS011;13497;48.322;16.204;2023-06-19T07:56:43;3.65;;;3.28;;
25639;SDS011;13497;48.322;16.204;2023-06-19T07:59:09;4.10;;;3.42;;
25639;SDS011;13497;48.322;16.204;2023-06-19T08:01:35;3.53;;;3.03;;
25639;SDS011;13497;48.322;16.204;2023-06-19T08:04:00;3.70;;;3.30;;
25639;SDS011;13497;48.322;16.204;2023-06-19T08:06:26;5.03;;;3.00;;
25639;SDS011;13497;48.322;16.204;2023-06-19T08:08:51;3.30;;;2.30;;
25639;SDS011;13497;48.322;16.204;2023-06-19T08:11:17;4.53;;;3.20;;
25639;SDS011;13497;48.322;16.204;2023-06-19T08:13:43;3.50;;;3.00;;
25639;SDS011;13497;48.322;16.204;2023-06-19T08:16:08;3.58;;;2.78;;
25639;SDS011;13497;48.322;16.204;2023-06-19T08:18:35;3.72;;;3.30;;
25639;SDS011;13497;48.322;16.204;2023-06-19T08:23:27;3.92;;;2.80;;
25639;SDS011;13497;48.322;16.204;2023-06-19T08:25:52;3.60;;;2.90;;
25639;SDS011;13497;48.322;16.204;2023-06-19T08:28:18;3.85;;;2.75;;
25639;SDS011;13497;48.322;16.204;2023-06-19T08:30:44;3.60;;;3.22;;
25639;SDS011;13497;48.322;16.204;2023-06-19T08:33:10;4.22;;;2.78;;
25639;SDS011;13497;48.322;16.204;2023-06-19T08:35:37;3.92;;;2.47;;
25639;SDS011;13497;48.322;16.204;2023-06-19T08:38:03;3.60;;;3.15;;
25639;SDS011;13497;48.322;16.204;2023-06-19T08:40:29;5.00;;;2.92;;
25639;SDS011;13497;48.322;16.204;2023-06-19T08:42:55;3.22;;;2.70;;
25639;SDS011;13497;48.322;16.204;2023-06-19T08:47:47;3.80;;;2.47;;
25639;SDS011;13497;48.322;16.204;2023-06-19T08:50:14;2.95;;;2.75;;
25639;SDS011;13497;48.322;16.204;2023-06-19T08:52:40;5.00;;;3.00;;
25639;SDS011;13497;48.322;16.204;2023-06-19T08:55:07;3.47;;;2.75;;
25639;SDS011;13497;48.322;16.204;2023-06-19T08:57:34;6.38;;;3.70;;
25639;SDS011;13497;48.322;16.204;2023-06-19T09:00:00;5.60;;;3.42;;
25639;SDS011;13497;48.322;16.204;2023-06-19T09:02:36;4.53;;;3.08;;
25639;SDS011;13497;48.322;16.204;2023-06-19T09:05:10;3.38;;;3.08;;
25639;SDS011;13497;48.322;16.204;2023-06-19T09:07:37;4.47;;;3.15;;
25639;SDS011;13497;48.322;16.204;2023-06-19T09:10:16;3.38;;;3.08;;
25639;SDS011;13497;48.322;16.204;2023-06-19T09:12:43;3.83;;;3.30;;
25639;SDS011;13497;48.322;16.204;2023-06-19T09:15:15;4.63;;;3.15;;
25639;SDS011;13497;48.322;16.204;2023-06-19T09:17:41;3.58;;;2.75;;
25639;SDS011;13497;48.322;16.204;2023-06-19T09:22:33;4.30;;;3.13;;
25639;SDS011;13497;48.322;16.204;2023-06-19T09:27:30;5.53;;;2.83;;
25639;SDS011;13497;48.322;16.204;2023-06-19T09:29:57;3.35;;;2.85;;
25639;SDS011;13497;48.322;16.204;2023-06-19T09:32:25;5.00;;;3.08;;
25639;SDS011;13497;48.322;16.204;2023-06-19T09:34:56;4.40;;;2.80;;
25639;SDS011;13497;48.322;16.204;2023-06-19T09:37:28;2.63;;;2.42;;
25639;SDS011;13497;48.322;16.204;2023-06-19T09:39:56;3.15;;;2.85;;
25639;SDS011;13497;48.322;16.204;2023-06-19T09:42:25;2.92;;;2.65;;
25639;SDS011;13497;48.322;16.204;2023-06-19T09:45:02;6.13;;;3.50;;
25639;SDS011;13497;48.322;16.204;2023-06-19T09:47:31;3.10;;;2.80;;
25639;SDS011;13497;48.322;16.204;2023-06-19T09:50:00;4.28;;;3.40;;
25639;SDS011;13497;48.322;16.204;2023-06-19T09:52:27;4.07;;;3.20;;
25639;SDS011;13497;48.322;16.204;2023-06-19T09:57:19;4.10;;;3.20;;
25639;SDS011;13497;48.322;16.204;2023-06-19T09:59:51;3.55;;;2.83;;
25639;SDS011;13497;48.322;16.204;2023-06-19T10:02:19;3.28;;;2.92;;
25639;SDS011;13497;48.322;16.204;2023-06-19T10:04:53;3.33;;;2.95;;
25639;SDS011;13497;48.322;16.204;2023-06-19T10:07:24;3.80;;;3.22;;
25639;SDS011;13497;48.322;16.204;2023-06-19T10:10:05;3.22;;;2.80;;
25639;SDS011;13497;48.322;16.204;2023-06-19T10:12:48;3.03;;;2.75;;
25639;SDS011;13497;48.322;16.204;2023-06-19T10:17:50;2.90;;;2.58;;
25639;SDS011;13497;48.322;16.204;2023-06-19T10:20:29;3.45;;;2.80;;
25639;SDS011;13497;48.322;16.204;2023-06-19T10:23:07;3.03;;;2.80;;
25639;SDS011;13497;48.322;16.204;2023-06-19T10:25:48;3.28;;;2.97;;
25639;SDS011;13497;48.322;16.204;2023-06-19T10:28:28;4.05;;;2.70;;
25639;SDS011;13497;48.322;16.204;2023-06-19T10:30:59;3.63;;;2.90;;
25639;SDS011;13497;48.322;16.204;2023-06-19T10:33:30;3.67;;;2.97;;
25639;SDS011;13497;48.322;16.204;2023-06-19T10:35:58;5.63;;;3.15;;
25639;SDS011;13497;48.322;16.204;2023-06-19T10:38:25;3.90;;;2.95;;
25639;SDS011;13497;48.322;16.204;2023-06-19T10:40:51;2.88;;;2.42;;
25639;SDS011;13497;48.322;16.204;2023-06-19T10:45:46;4.35;;;3.03;;
25639;SDS011;13497;48.322;16.204;2023-06-19T10:50:43;3.28;;;2.67;;
25639;SDS011;13497;48.322;16.204;2023-06-19T10:55:34;4.57;;;2.83;;
25639;SDS011;13497;48.322;16.204;2023-06-19T11:00:29;9.13;;;2.90;;
25639;SDS011;13497;48.322;16.204;2023-06-19T11:02:59;3.10;;;2.80;;
25639;SDS011;13497;48.322;16.204;2023-06-19T11:08:00;3.20;;;2.90;;
25639;SDS011;13497;48.322;16.204;2023-06-19T11:10:27;2.90;;;2.60;;
25639;SDS011;13497;48.322;16.204;2023-06-19T11:12:56;3.10;;;2.80;;
25639;SDS011;13497;48.322;16.204;2023-06-19T11:17:56;3.92;;;2.92;;
25639;SDS011;13497;48.322;16.204;2023-06-19T11:20:22;3.15;;;2.65;;
25639;SDS011;13497;48.322;16.204;2023-06-19T11:22:53;4.60;;;2.60;;
25639;SDS011;13497;48.322;16.204;2023-06-19T11:25:23;4.40;;;2.50;;
25639;SDS011;13497;48.322;16.204;2023-06-19T11:28:00;3.15;;;2.40;;
25639;SDS011;13497;48.322;16.204;2023-06-19T11:30:32;3.58;;;2.80;;
25639;SDS011;13497;48.322;16.204;2023-06-19T11:32:59;2.60;;;2.40;;
25639;SDS011;13497;48.322;16.204;2023-06-19T11:35:25;7.20;;;3.58;;
25639;SDS011;13497;48.322;16.204;2023-06-19T11:37:59;3.00;;;2.70;;
25639;SDS011;13497;48.322;16.204;2023-06-19T11:42:53;2.35;;;2.13;;
25639;SDS011;13497;48.322;16.204;2023-06-19T11:45:20;3.03;;;2.30;;
25639;SDS011;13497;48.322;16.204;2023-06-19T11:47:46;2.58;;;2.38;;
25639;SDS011;13497;48.322;16.204;2023-06-19T11:50:14;3.60;;;2.70;;
25639;SDS011;13497;48.322;16.204;2023-06-19T11:52:44;2.67;;;2.13;;
25639;SDS011;13497;48.322;16.204;2023-06-19T11:57:35;3.10;;;2.47;;
25639;SDS011;13497;48.322;16.204;2023-06-19T12:02:32;3.90;;;2.22;;
25639;SDS011;13497;48.322;16.204;2023-06-19T12:04:57;4.00;;;2.53;;
25639;SDS011;13497;48.322;16.204;2023-06-19T12:07:24;4.38;;;2.35;;
25639;SDS011;13497;48.322;16.204;2023-06-19T12:09:50;3.13;;;2.53;;
25639;SDS011;13497;48.322;16.204;2023-06-19T12:12:18;3.10;;;2.63;;
25639;SDS011;13497;48.322;16.204;2023-06-19T12:14:44;3.20;;;2.60;;
25639;SDS011;13497;48.322;16.204;2023-06-19T12:17:10;2.95;;;2.35;;
25639;SDS011;13497;48.322;16.204;2023-06-19T12:19:35;2.40;;;2.20;;
25639;SDS011;13497;48.322;16.204;2023-06-19T12:22:01;2.60;;;2.40;;
25639;SDS011;13497;48.322;16.204;2023-06-19T12:24:28;2.85;;;2.20;;
25639;SDS011;13497;48.322;16.204;2023-06-19T12:26:54;4.40;;;2.70;;
25639;SDS011;13497;48.322;16.204;2023-06-19T12:29:20;2.83;;;2.63;;
25639;SDS011;13497;48.322;16.204;2023-06-19T12:31:45;4.55;;;2.90;;
25639;SDS011;13497;48.322;16.204;2023-06-19T12:34:11;4.22;;;2.47;;
25639;SDS011;13497;48.322;16.204;2023-06-19T12:36:37;3.05;;;2.40;;
25639;SDS011;13497;48.322;16.204;2023-06-19T12:39:02;2.80;;;2.50;;
25639;SDS011;13497;48.322;16.204;2023-06-19T12:41:31;2.90;;;2.45;;
25639;SDS011;13497;48.322;16.204;2023-06-19T12:43:56;3.03;;;2.10;;
25639;SDS011;13497;48.322;16.204;2023-06-19T12:46:22;3.42;;;2.47;;
25639;SDS011;13497;48.322;16.204;2023-06-19T12:48:48;4.45;;;2.75;;
25639;SDS011;13497;48.322;16.204;2023-06-19T12:51:16;3.25;;;2.70;;
25639;SDS011;13497;48.322;16.204;2023-06-19T12:53:44;5.35;;;2.97;;
25639;SDS011;13497;48.322;16.204;2023-06-19T12:56:10;6.38;;;2.67;;
25639;SDS011;13497;48.322;16.204;2023-06-19T12:58:36;4.18;;;2.85;;
25639;SDS011;13497;48.322;16.204;2023-06-19T13:01:01;2.83;;;2.53;;
25639;SDS011;13497;48.322;16.204;2023-06-19T13:03:27;3.58;;;2.70;;
25639;SDS011;13497;48.322;16.204;2023-06-19T13:05:52;3.05;;;2.70;;
25639;SDS011;13497;48.322;16.204;2023-06-19T13:08:19;3.78;;;3.20;;
25639;SDS011;13497;48.322;16.204;2023-06-19T13:10:46;3.88;;;2.65;;
25639;SDS011;13497;48.322;16.204;2023-06-19T13:13:12;2.88;;;2.58;;
25639;SDS011;13497;48.322;16.204;2023-06-19T13:15:38;2.55;;;2.35;;
25639;SDS011;13497;48.322;16.204;2023-06-19T13:18:04;2.90;;;2.60;;
25639;SDS011;13497;48.322;16.204;2023-06-19T13:20:29;2.85;;;2.63;;
25639;SDS011;13497;48.322;16.204;2023-06-19T13:22:55;2.88;;;2.63;;
25639;SDS011;13497;48.322;16.204;2023-06-19T13:25:21;3.70;;;2.58;;
25639;SDS011;13497;48.322;16.204;2023-06-19T13:27:46;2.97;;;2.78;;
25639;SDS011;13497;48.322;16.204;2023-06-19T13:30:12;3.38;;;2.80;;
25639;SDS011;13497;48.322;16.204;2023-06-19T13:32:38;2.67;;;2.47;;
25639;SDS011;13497;48.322;16.204;2023-06-19T13:35:04;3.15;;;2.65;;
25639;SDS011;13497;48.322;16.204;2023-06-19T13:37:36;4.65;;;2.92;;
25639;SDS011;13497;48.322;16.204;2023-06-19T13:40:04;3.45;;;2.90;;
25639;SDS011;13497;48.322;16.204;2023-06-19T13:42:30;2.50;;;2.30;;
25639;SDS011;13497;48.322;16.204;2023-06-19T13:44:56;4.60;;;3.05;;
25639;SDS011;13497;48.322;16.204;2023-06-19T13:47:22;3.50;;;3.17;;
25639;SDS011;13497;48.322;16.204;2023-06-19T13:49:50;2.88;;;2.67;;
25639;SDS011;13497;48.322;16.204;2023-06-19T13:52:16;3.50;;;2.75;;
25639;SDS011;13497;48.322;16.204;2023-06-19T13:54:42;3.20;;;2.70;;
25639;SDS011;13497;48.322;16.204;2023-06-19T13:57:07;2.72;;;2.53;;
25639;SDS011;13497;48.322;16.204;2023-06-19T13:59:33;3.75;;;3.08;;
25639;SDS011;13497;48.322;16.204;2023-06-19T14:01:58;3.55;;;2.13;;
25639;SDS011;13497;48.322;16.204;2023-06-19T14:04:24;2.83;;;2.50;;
25639;SDS011;13497;48.322;16.204;2023-06-19T14:06:50;3.05;;;2.58;;
25639;SDS011;13497;48.322;16.204;2023-06-19T14:09:16;3.38;;;2.75;;
25639;SDS011;13497;48.322;16.204;2023-06-19T14:11:42;2.85;;;2.60;;
25639;SDS011;13497;48.322;16.204;2023-06-19T14:14:09;4.25;;;2.85;;
25639;SDS011;13497;48.322;16.204;2023-06-19T14:16:34;2.47;;;2.28;;
25639;SDS011;13497;48.322;16.204;2023-06-19T14:19:00;3.38;;;2.88;;
25639;SDS011;13497;48.322;16.204;2023-06-19T14:21:25;3.42;;;2.70;;
25639;SDS011;13497;48.322;16.204;2023-06-19T14:23:52;3.33;;;2.78;;
25639;SDS011;13497;48.322;16.204;2023-06-19T14:26:17;2.65;;;2.45;;
25639;SDS011;13497;48.322;16.204;2023-06-19T14:28:43;3.08;;;2.83;;
25639;SDS011;13497;48.322;16.204;2023-06-19T14:31:09;4.32;;;2.63;;
25639;SDS011;13497;48.322;16.204;2023-06-19T14:33:35;2.80;;;2.40;;
25639;SDS011;13497;48.322;16.204;2023-06-19T14:36:02;3.75;;;2.70;;
25639;SDS011;13497;48.322;16.204;2023-06-19T14:38:28;4.20;;;2.60;;
25639;SDS011;13497;48.322;16.204;2023-06-19T14:40:58;3.35;;;2.53;;
25639;SDS011;13497;48.322;16.204;2023-06-19T14:43:27;3.65;;;2.50;;
25639;SDS011;13497;48.322;16.204;2023-06-19T14:45:53;2.90;;;2.50;;
25639;SDS011;13497;48.322;16.204;2023-06-19T14:48:19;2.88;;;2.63;;
25639;SDS011;13497;48.322;16.204;2023-06-19T14:50:45;2.90;;;2.60;;
25639;SDS011;13497;48.322;16.204;2023-06-19T14:53:10;3.85;;;2.50;;
25639;SDS011;13497;48.322;16.204;2023-06-19T14:55:36;3.05;;;2.53;;
25639;SDS011;13497;48.322;16.204;2023-06-19T14:58:08;2.45;;;2.25;;
25639;SDS011;13497;48.322;16.204;2023-06-19T15:00:33;2.70;;;2.50;;
25639;SDS011;13497;48.322;16.204;2023-06-19T15:03:03;2.60;;;2.40;;
25639;SDS011;13497;48.322;16.204;2023-06-19T15:05:32;2.72;;;2.35;;
25639;SDS011;13497;48.322;16.204;2023-06-19T15:07:58;3.63;;;2.72;;
25639;SDS011;13497;48.322;16.204;2023-06-19T15:10:25;3.83;;;2.75;;
25639;SDS011;13497;48.322;16.204;2023-06-19T15:12:50;2.95;;;2.58;;
25639;SDS011;13497;48.322;16.204;2023-06-19T15:15:16;2.75;;;2.55;;
25639;SDS011;13497;48.322;16.204;2023-06-19T15:17:42;3.00;;;2.40;;
25639;SDS011;13497;48.322;16.204;2023-06-19T15:20:08;3.55;;;2.42;;
25639;SDS011;13497;48.322;16.204;2023-06-19T15:22:34;2.75;;;2.42;;
25639;SDS011;13497;48.322;16.204;2023-06-19T15:25:01;2.90;;;2.58;;
25639;SDS011;13497;48.322;16.204;2023-06-19T15:27:27;2.70;;;2.50;;
25639;SDS011;13497;48.322;16.204;2023-06-19T15:29:53;2.38;;;2.17;;
25639;SDS011;13497;48.322;16.204;2023-06-19T15:32:19;3.65;;;2.53;;
25639;SDS011;13497;48.322;16.204;2023-06-19T15:34:44;3.30;;;3.00;;
25639;SDS011;13497;48.322;16.204;2023-06-19T15:37:10;4.22;;;2.95;;
25639;SDS011;13497;48.322;16.204;2023-06-19T15:39:36;4.47;;;2.72;;
25639;SDS011;13497;48.322;16.204;2023-06-19T15:42:02;3.13;;;2.78;;
25639;SDS011;13497;48.322;16.204;2023-06-19T15:44:28;2.95;;;2.70;;
25639;SDS011;13497;48.322;16.204;2023-06-19T15:46:53;2.67;;;2.47;;
25639;SDS011;13497;48.322;16.204;2023-06-19T15:49:19;4.75;;;2.40;;
25639;SDS011;13497;48.322;16.204;2023-06-19T15:51:44;3.30;;;2.80;;